Hovedside
METAR-TAF:

METAR-TAF

Lufthavner :

Visby lufthavn

Visby, Gotland, Sverige

breddegrad: 57-40N, lengdegrad: 018-21E, høyde over havet: 51 m

Gjeldene værobservasjon

Denne rapporten ble laget for 31 minutter siden, klokken 21:50 UTC
Vind 11 kt fra Vest-sørvest
Temperatur 4°C
Luftfuktighet 75%
Trykk 1010 hPa
Sikt 10 km eller mer

METAR: ESSV 242150Z AUTO 24011KT 9999 BKN074/// 04/M00 Q1010

Tid: 23:21 (22:21 UTC)

Varsel

Denne rapporten ble laget for 1 time og 51 minutter siden, klokken 20:30 UTC
Varsel gyldig fra 24. klokken 21 UTC til 24. klokken 23 UTC
Vind 9 kt fra Vest-sørvest
Sikt 10 km eller mer
ingen skyer under 1500 m og ingen bygeskyer

TAF: ESSV 242030Z 2421/2423 24009KT CAVOK

Værobservasjoner og værvarsel for over 4000 flyplasser (METAR- og TAF-rapporter).

Tilgjengelige stasjoner er representert av de røde og gule prikkene på kartet.

Hold musepekeren over prikken for å se navnet på stasjonen.

Klikk så for å se værobservasjoner og -varsler.

For å forandre kartet kan du klikke på den grønne knappen med svart kryss for å zoome inn, på den grønne knappen med strek for å zoome ut, eller på de grønne pilene for å se tilstøtende kart.


METAR-TAF: